• Join FlightAware (Why Join?)
  • Login
  • US Flag 
09:08PM EDT


 

Airport Tracker/Info


-or-


 

Live Flight TrackerFlight Track Log ✈ AMF1324 ✈ 18-Sep-2013 ✈ KBUF - KBGM

Flight Track Log - Related Links

Times and Time Zones

All times are in EDT time to prevent confusion due to time zone crossing. See the AMF1324 flight status page for this flight to view local times or setup timezone preferences in your user account.

Time Position Orientation Groundspeed Altitude Reporting Facility
EDT Latitude Longitude Course Direction KTS MPH feet Rate Location/Type
06:52AM 42.9333 -78.7500 180° South 159 183 1,300  Level Buffalo TRACON
06:53AM 42.9167 -78.7500 180° South 154 177 1,700 1,560 Climbing Buffalo TRACON
06:55AM 42.8778 -78.6383 115° Southeast 191 220 5,600 1,440 Climbing Cleveland Center
06:56AM 42.8786 -78.5711 89° East 199 229 6,800 1,260 Climbing Cleveland Center
06:57AM 42.8803 -78.4894 88° East 191 220 8,300 1,380 Climbing Cleveland Center
06:58AM 42.8808 -78.4161 89° East 186 214 9,700 1,260 Climbing Cleveland Center
06:59AM 42.8767 -78.3422 94° East 187 215 11,000 1,200 Climbing Cleveland Center
07:00AM 42.8689 -78.2739 99° East 185 213 12,200 960 Climbing Cleveland Center
07:01AM 42.8586 -78.2031 101° East 190 219 13,000 360 Climbing Cleveland Center
07:02AM 42.8456 -78.1200 102° East 227 261 13,000  Level Cleveland Center
07:03AM 42.8325 -78.0289 101° East 243 280 13,000  Level Cleveland Center
07:04AM 42.8283 -77.9386 94° East 240 276 13,000 -60 Level Cleveland Center
07:05AM 42.8272 -77.8478 91° East 239 275 12,900 -60 Descending Cleveland Center
07:06AM 42.8286 -77.7572 89° East 240 276 12,900  Level Cleveland Center
07:07AM 42.8081 -77.6747 109° East 238 274 12,900  Level Cleveland Center
07:08AM 42.7711 -77.5786 118° Southeast 237 273 12,900  Level Cleveland Center
07:09AM 42.7397 -77.4983 118° Southeast 237 273 12,900 -300 Level Cleveland Center
07:10AM 42.7058 -77.4183 120° Southeast 241 277 12,400 -600 Descending Cleveland Center
07:11AM 42.6697 -77.3353 121° Southeast 249 287 11,700 -600 Descending Cleveland Center
07:12AM 42.6344 -77.2508 120° Southeast 255 293 11,200 -420 Descending Cleveland Center
07:13AM 42.6014 -77.1669 118° Southeast 255 293 10,900 -120 Descending Cleveland Center
07:14AM 42.5719 -77.0875 117° Southeast 242 278 11,000  Climbing Cleveland Center
07:15AM 42.5417 -77.0064 117° Southeast 241 277 11,000  Level Cleveland Center
07:17AM 42.5139 -76.9278 116° Southeast 235 270 11,000 -180 Level Cleveland Center
07:18AM 42.4783 -76.8308 116° Southeast 238 274 10,700 -660 Descending Cleveland Center
07:19AM 42.4419 -76.7483 121° Southeast 249 287 9,700 -840 Descending Cleveland Center
07:20AM 42.4044 -76.6611 120° Southeast 261 300 9,000 -360 Descending Cleveland Center
07:21AM 42.3703 -76.5767 119° Southeast 261 300 9,000 -360 Level Cleveland Center
07:22AM 42.3508 -76.4864 106° East 253 291 8,300 -1,080 Descending Cleveland Center
07:23AM 42.3250 -76.3917 110° East 263 303 6,800 -1,440 Descending Cleveland Center
07:24AM 42.3047 -76.2950 106° East 270 311 5,400 -1,200 Descending Cleveland Center
07:25AM 42.2978 -76.1975 95° East 237 273 4,400 -660 Descending Cleveland Center
07:26AM 42.2978 -76.1347 90° East 218 251 4,100 -480 Descending Cleveland Center
07:27AM 42.2767 -76.0481 108° East 191 220 3,400 -780 Descending New York Center
07:28AM 42.2428 -76.0144 144° Southeast 148 170 2,400 -600 Descending New York Center
07:29AM 42.2181 -75.9619 122° Southeast 148 170 2,200 -240 Descending New York Center